sensor_id;sensor_type;location;lat;lon;timestamp;P1;durP1;ratioP1;P2;durP2;ratioP2
22705;SDS011;11520;51.198;4.468;2022-08-27T00:00:34;5.28;;;2.10;;
22705;SDS011;11520;51.198;4.468;2022-08-27T00:03:01;4.82;;;2.00;;
22705;SDS011;11520;51.198;4.468;2022-08-27T00:05:27;6.65;;;2.67;;
22705;SDS011;11520;51.198;4.468;2022-08-27T00:07:54;8.90;;;2.92;;
22705;SDS011;11520;51.198;4.468;2022-08-27T00:10:23;7.03;;;2.03;;
22705;SDS011;11520;51.198;4.468;2022-08-27T00:12:51;6.22;;;2.40;;
22705;SDS011;11520;51.198;4.468;2022-08-27T00:15:22;5.32;;;1.90;;
22705;SDS011;11520;51.198;4.468;2022-08-27T00:17:48;4.53;;;1.90;;
22705;SDS011;11520;51.198;4.468;2022-08-27T00:20:14;9.32;;;2.30;;
22705;SDS011;11520;51.198;4.468;2022-08-27T00:22:42;5.63;;;1.80;;
22705;SDS011;11520;51.198;4.468;2022-08-27T00:25:10;4.13;;;2.15;;
22705;SDS011;11520;51.198;4.468;2022-08-27T00:27:36;8.60;;;2.67;;
22705;SDS011;11520;51.198;4.468;2022-08-27T00:30:03;5.38;;;1.95;;
22705;SDS011;11520;51.198;4.468;2022-08-27T00:32:30;8.15;;;2.35;;
22705;SDS011;11520;51.198;4.468;2022-08-27T00:34:56;4.63;;;2.20;;
22705;SDS011;11520;51.198;4.468;2022-08-27T00:37:24;3.60;;;1.75;;
22705;SDS011;11520;51.198;4.468;2022-08-27T00:39:51;4.57;;;2.03;;
22705;SDS011;11520;51.198;4.468;2022-08-27T00:42:17;6.72;;;2.20;;
22705;SDS011;11520;51.198;4.468;2022-08-27T00:44:43;8.25;;;2.50;;
22705;SDS011;11520;51.198;4.468;2022-08-27T00:47:13;8.02;;;2.55;;
22705;SDS011;11520;51.198;4.468;2022-08-27T00:49:43;8.23;;;2.30;;
22705;SDS011;11520;51.198;4.468;2022-08-27T00:52:30;7.40;;;2.47;;
22705;SDS011;11520;51.198;4.468;2022-08-27T00:55:07;6.15;;;2.10;;
22705;SDS011;11520;51.198;4.468;2022-08-27T00:57:38;8.05;;;2.25;;
22705;SDS011;11520;51.198;4.468;2022-08-27T01:00:07;3.30;;;1.80;;
22705;SDS011;11520;51.198;4.468;2022-08-27T01:02:35;5.65;;;2.25;;
22705;SDS011;11520;51.198;4.468;2022-08-27T01:05:05;4.85;;;2.03;;
22705;SDS011;11520;51.198;4.468;2022-08-27T01:07:35;6.65;;;2.60;;
22705;SDS011;11520;51.198;4.468;2022-08-27T01:10:04;6.50;;;2.13;;
22705;SDS011;11520;51.198;4.468;2022-08-27T01:12:35;6.22;;;2.08;;
22705;SDS011;11520;51.198;4.468;2022-08-27T01:17:33;7.22;;;2.40;;
22705;SDS011;11520;51.198;4.468;2022-08-27T01:20:02;6.47;;;2.80;;
22705;SDS011;11520;51.198;4.468;2022-08-27T01:24:59;4.38;;;2.25;;
22705;SDS011;11520;51.198;4.468;2022-08-27T01:27:30;5.88;;;2.22;;
22705;SDS011;11520;51.198;4.468;2022-08-27T01:29:57;4.10;;;1.80;;
22705;SDS011;11520;51.198;4.468;2022-08-27T01:32:27;5.20;;;2.10;;
22705;SDS011;11520;51.198;4.468;2022-08-27T01:34:58;4.70;;;2.10;;
22705;SDS011;11520;51.198;4.468;2022-08-27T01:37:30;4.00;;;2.40;;
22705;SDS011;11520;51.198;4.468;2022-08-27T01:39:57;5.88;;;2.17;;
22705;SDS011;11520;51.198;4.468;2022-08-27T01:42:33;5.65;;;2.30;;
22705;SDS011;11520;51.198;4.468;2022-08-27T01:45:12;5.53;;;2.13;;
22705;SDS011;11520;51.198;4.468;2022-08-27T01:47:40;7.00;;;2.38;;
22705;SDS011;11520;51.198;4.468;2022-08-27T01:50:09;7.75;;;2.53;;
22705;SDS011;11520;51.198;4.468;2022-08-27T01:52:39;5.60;;;2.20;;
22705;SDS011;11520;51.198;4.468;2022-08-27T01:55:05;5.07;;;2.38;;
22705;SDS011;11520;51.198;4.468;2022-08-27T01:57:33;6.13;;;2.40;;
22705;SDS011;11520;51.198;4.468;2022-08-27T02:00:05;8.07;;;3.33;;
22705;SDS011;11520;51.198;4.468;2022-08-27T02:02:37;7.32;;;2.70;;
22705;SDS011;11520;51.198;4.468;2022-08-27T02:05:05;4.72;;;2.42;;
22705;SDS011;11520;51.198;4.468;2022-08-27T02:07:32;5.85;;;2.40;;
22705;SDS011;11520;51.198;4.468;2022-08-27T02:09:57;4.35;;;2.30;;
22705;SDS011;11520;51.198;4.468;2022-08-27T02:12:25;7.13;;;2.50;;
22705;SDS011;11520;51.198;4.468;2022-08-27T02:14:50;8.45;;;2.38;;
22705;SDS011;11520;51.198;4.468;2022-08-27T02:17:18;7.85;;;2.80;;
22705;SDS011;11520;51.198;4.468;2022-08-27T02:19:44;5.00;;;2.03;;
22705;SDS011;11520;51.198;4.468;2022-08-27T02:22:10;5.65;;;2.47;;
22705;SDS011;11520;51.198;4.468;2022-08-27T02:24:36;10.52;;;3.55;;
22705;SDS011;11520;51.198;4.468;2022-08-27T02:27:02;6.07;;;2.55;;
22705;SDS011;11520;51.198;4.468;2022-08-27T02:29:28;7.70;;;2.40;;
22705;SDS011;11520;51.198;4.468;2022-08-27T02:31:53;6.90;;;2.70;;
22705;SDS011;11520;51.198;4.468;2022-08-27T02:34:20;3.90;;;2.30;;
22705;SDS011;11520;51.198;4.468;2022-08-27T02:36:48;9.43;;;2.40;;
22705;SDS011;11520;51.198;4.468;2022-08-27T02:39:14;5.20;;;2.50;;
22705;SDS011;11520;51.198;4.468;2022-08-27T02:41:40;6.15;;;2.65;;
22705;SDS011;11520;51.198;4.468;2022-08-27T02:44:07;8.25;;;3.10;;
22705;SDS011;11520;51.198;4.468;2022-08-27T02:46:34;6.20;;;2.38;;
22705;SDS011;11520;51.198;4.468;2022-08-27T02:49:02;5.70;;;2.53;;
22705;SDS011;11520;51.198;4.468;2022-08-27T02:51:27;7.30;;;2.72;;
22705;SDS011;11520;51.198;4.468;2022-08-27T02:53:54;6.40;;;2.38;;
22705;SDS011;11520;51.198;4.468;2022-08-27T02:56:26;8.43;;;2.40;;
22705;SDS011;11520;51.198;4.468;2022-08-27T02:58:55;5.50;;;2.38;;
22705;SDS011;11520;51.198;4.468;2022-08-27T03:01:23;7.57;;;2.83;;
22705;SDS011;11520;51.198;4.468;2022-08-27T03:03:55;8.63;;;2.95;;
22705;SDS011;11520;51.198;4.468;2022-08-27T03:06:23;4.55;;;2.30;;
22705;SDS011;11520;51.198;4.468;2022-08-27T03:08:58;6.72;;;2.65;;
22705;SDS011;11520;51.198;4.468;2022-08-27T03:17:15;6.15;;;2.90;;
22705;SDS011;11520;51.198;4.468;2022-08-27T03:22:33;6.78;;;2.40;;
22705;SDS011;11520;51.198;4.468;2022-08-27T03:27:35;5.47;;;2.70;;
22705;SDS011;11520;51.198;4.468;2022-08-27T03:30:02;3.83;;;2.50;;
22705;SDS011;11520;51.198;4.468;2022-08-27T03:32:29;10.30;;;2.97;;
22705;SDS011;11520;51.198;4.468;2022-08-27T03:34:58;4.80;;;2.40;;
22705;SDS011;11520;51.198;4.468;2022-08-27T03:37:24;12.13;;;2.63;;
22705;SDS011;11520;51.198;4.468;2022-08-27T03:39:50;9.73;;;3.00;;
22705;SDS011;11520;51.198;4.468;2022-08-27T03:42:16;7.10;;;2.90;;
22705;SDS011;11520;51.198;4.468;2022-08-27T03:44:41;5.97;;;2.63;;
22705;SDS011;11520;51.198;4.468;2022-08-27T03:47:09;5.68;;;3.00;;
22705;SDS011;11520;51.198;4.468;2022-08-27T03:49:36;6.20;;;2.60;;
22705;SDS011;11520;51.198;4.468;2022-08-27T03:54:35;6.68;;;2.10;;
22705;SDS011;11520;51.198;4.468;2022-08-27T03:57:03;5.57;;;2.65;;
22705;SDS011;11520;51.198;4.468;2022-08-27T03:59:32;4.85;;;2.50;;
22705;SDS011;11520;51.198;4.468;2022-08-27T04:01:59;6.10;;;2.50;;
22705;SDS011;11520;51.198;4.468;2022-08-27T04:04:32;4.35;;;2.35;;
22705;SDS011;11520;51.198;4.468;2022-08-27T04:07:00;7.63;;;3.40;;
22705;SDS011;11520;51.198;4.468;2022-08-27T04:09:26;7.15;;;2.42;;
22705;SDS011;11520;51.198;4.468;2022-08-27T04:11:54;4.82;;;2.47;;
22705;SDS011;11520;51.198;4.468;2022-08-27T04:14:21;5.50;;;2.60;;
22705;SDS011;11520;51.198;4.468;2022-08-27T04:16:58;7.25;;;2.85;;
22705;SDS011;11520;51.198;4.468;2022-08-27T04:19:31;6.60;;;3.08;;
22705;SDS011;11520;51.198;4.468;2022-08-27T04:22:00;6.95;;;2.53;;
22705;SDS011;11520;51.198;4.468;2022-08-27T04:24:30;5.90;;;2.63;;
22705;SDS011;11520;51.198;4.468;2022-08-27T04:26:59;4.07;;;2.20;;
22705;SDS011;11520;51.198;4.468;2022-08-27T04:29:28;7.82;;;3.13;;
22705;SDS011;11520;51.198;4.468;2022-08-27T04:31:58;4.70;;;2.70;;
22705;SDS011;11520;51.198;4.468;2022-08-27T04:34:23;8.38;;;3.00;;
22705;SDS011;11520;51.198;4.468;2022-08-27T04:36:53;10.00;;;3.28;;
22705;SDS011;11520;51.198;4.468;2022-08-27T04:39:29;6.15;;;2.65;;
22705;SDS011;11520;51.198;4.468;2022-08-27T04:41:58;7.97;;;3.28;;
22705;SDS011;11520;51.198;4.468;2022-08-27T04:44:31;7.07;;;3.15;;
22705;SDS011;11520;51.198;4.468;2022-08-27T04:47:02;13.68;;;3.50;;
22705;SDS011;11520;51.198;4.468;2022-08-27T04:49:41;5.88;;;3.13;;
22705;SDS011;11520;51.198;4.468;2022-08-27T04:52:20;9.05;;;3.08;;
22705;SDS011;11520;51.198;4.468;2022-08-27T04:54:48;6.45;;;3.22;;
22705;SDS011;11520;51.198;4.468;2022-08-27T04:57:19;8.27;;;3.35;;
22705;SDS011;11520;51.198;4.468;2022-08-27T04:59:55;6.70;;;3.25;;
22705;SDS011;11520;51.198;4.468;2022-08-27T05:02:22;6.63;;;3.00;;
22705;SDS011;11520;51.198;4.468;2022-08-27T05:04:50;9.65;;;3.05;;
22705;SDS011;11520;51.198;4.468;2022-08-27T05:07:17;8.27;;;3.20;;
22705;SDS011;11520;51.198;4.468;2022-08-27T05:09:43;8.43;;;2.72;;
22705;SDS011;11520;51.198;4.468;2022-08-27T05:12:12;7.93;;;2.88;;
22705;SDS011;11520;51.198;4.468;2022-08-27T05:14:39;7.05;;;2.40;;
22705;SDS011;11520;51.198;4.468;2022-08-27T05:17:06;5.90;;;2.45;;
22705;SDS011;11520;51.198;4.468;2022-08-27T05:22:01;5.07;;;2.42;;
22705;SDS011;11520;51.198;4.468;2022-08-27T05:24:28;5.95;;;2.50;;
22705;SDS011;11520;51.198;4.468;2022-08-27T05:26:55;6.15;;;3.25;;
22705;SDS011;11520;51.198;4.468;2022-08-27T05:29:22;6.63;;;2.63;;
22705;SDS011;11520;51.198;4.468;2022-08-27T05:31:48;5.63;;;2.60;;
22705;SDS011;11520;51.198;4.468;2022-08-27T05:34:14;9.38;;;2.70;;
22705;SDS011;11520;51.198;4.468;2022-08-27T05:36:40;10.00;;;3.25;;
22705;SDS011;11520;51.198;4.468;2022-08-27T05:39:06;6.55;;;2.67;;
22705;SDS011;11520;51.198;4.468;2022-08-27T05:41:32;7.68;;;3.20;;
22705;SDS011;11520;51.198;4.468;2022-08-27T05:43:59;10.07;;;2.58;;
22705;SDS011;11520;51.198;4.468;2022-08-27T05:46:28;6.00;;;2.20;;
22705;SDS011;11520;51.198;4.468;2022-08-27T05:48:58;4.50;;;1.92;;
22705;SDS011;11520;51.198;4.468;2022-08-27T05:51:36;4.80;;;2.30;;
22705;SDS011;11520;51.198;4.468;2022-08-27T05:56:46;6.80;;;1.75;;
22705;SDS011;11520;51.198;4.468;2022-08-27T06:02:42;6.53;;;1.67;;
22705;SDS011;11520;51.198;4.468;2022-08-27T06:05:14;5.68;;;1.60;;
22705;SDS011;11520;51.198;4.468;2022-08-27T06:07:40;4.20;;;1.63;;
22705;SDS011;11520;51.198;4.468;2022-08-27T06:10:05;5.20;;;2.38;;
22705;SDS011;11520;51.198;4.468;2022-08-27T06:12:32;7.60;;;2.00;;
22705;SDS011;11520;51.198;4.468;2022-08-27T06:14:58;6.97;;;1.80;;
22705;SDS011;11520;51.198;4.468;2022-08-27T06:17:25;4.38;;;1.48;;
22705;SDS011;11520;51.198;4.468;2022-08-27T06:19:50;9.02;;;1.48;;
22705;SDS011;11520;51.198;4.468;2022-08-27T06:22:17;6.00;;;1.50;;
22705;SDS011;11520;51.198;4.468;2022-08-27T06:24:43;4.47;;;1.60;;
22705;SDS011;11520;51.198;4.468;2022-08-27T06:27:09;6.28;;;1.27;;
22705;SDS011;11520;51.198;4.468;2022-08-27T06:32:07;2.53;;;1.30;;
22705;SDS011;11520;51.198;4.468;2022-08-27T06:34:34;6.47;;;1.40;;
22705;SDS011;11520;51.198;4.468;2022-08-27T06:37:01;4.65;;;1.27;;
22705;SDS011;11520;51.198;4.468;2022-08-27T06:39:27;5.35;;;1.38;;
22705;SDS011;11520;51.198;4.468;2022-08-27T06:41:56;4.15;;;1.42;;
22705;SDS011;11520;51.198;4.468;2022-08-27T06:44:23;3.90;;;1.30;;
22705;SDS011;11520;51.198;4.468;2022-08-27T06:46:50;4.15;;;1.08;;
22705;SDS011;11520;51.198;4.468;2022-08-27T06:49:16;4.72;;;1.30;;
22705;SDS011;11520;51.198;4.468;2022-08-27T06:51:43;5.20;;;1.17;;
22705;SDS011;11520;51.198;4.468;2022-08-27T06:54:11;4.80;;;1.13;;
22705;SDS011;11520;51.198;4.468;2022-08-27T06:56:38;2.10;;;1.30;;
22705;SDS011;11520;51.198;4.468;2022-08-27T06:59:07;3.63;;;1.15;;
22705;SDS011;11520;51.198;4.468;2022-08-27T07:01:36;4.82;;;1.13;;
22705;SDS011;11520;51.198;4.468;2022-08-27T07:04:05;3.90;;;1.40;;
22705;SDS011;11520;51.198;4.468;2022-08-27T07:06:33;2.70;;;1.10;;
22705;SDS011;11520;51.198;4.468;2022-08-27T07:08:59;3.60;;;1.20;;
22705;SDS011;11520;51.198;4.468;2022-08-27T07:11:26;4.93;;;1.20;;
22705;SDS011;11520;51.198;4.468;2022-08-27T07:13:57;5.65;;;1.45;;
22705;SDS011;11520;51.198;4.468;2022-08-27T07:16:25;6.45;;;1.25;;
22705;SDS011;11520;51.198;4.468;2022-08-27T07:18:53;2.83;;;1.00;;
22705;SDS011;11520;51.198;4.468;2022-08-27T07:21:22;5.28;;;1.30;;
22705;SDS011;11520;51.198;4.468;2022-08-27T07:23:49;2.28;;;1.13;;
22705;SDS011;11520;51.198;4.468;2022-08-27T07:26:17;3.15;;;1.10;;
22705;SDS011;11520;51.198;4.468;2022-08-27T07:28:43;5.53;;;1.35;;
22705;SDS011;11520;51.198;4.468;2022-08-27T07:31:13;4.38;;;1.42;;
22705;SDS011;11520;51.198;4.468;2022-08-27T07:33:43;3.97;;;1.40;;
22705;SDS011;11520;51.198;4.468;2022-08-27T07:36:12;4.00;;;1.10;;
22705;SDS011;11520;51.198;4.468;2022-08-27T07:38:37;3.03;;;0.93;;
22705;SDS011;11520;51.198;4.468;2022-08-27T07:41:05;4.25;;;1.35;;
22705;SDS011;11520;51.198;4.468;2022-08-27T07:43:32;4.07;;;1.35;;
22705;SDS011;11520;51.198;4.468;2022-08-27T07:46:16;4.32;;;1.10;;
22705;SDS011;11520;51.198;4.468;2022-08-27T07:48:42;3.80;;;1.40;;
22705;SDS011;11520;51.198;4.468;2022-08-27T07:51:12;6.57;;;1.15;;
22705;SDS011;11520;51.198;4.468;2022-08-27T07:53:40;6.70;;;1.20;;
22705;SDS011;11520;51.198;4.468;2022-08-27T07:56:07;5.30;;;1.60;;
22705;SDS011;11520;51.198;4.468;2022-08-27T07:58:33;5.90;;;1.15;;
22705;SDS011;11520;51.198;4.468;2022-08-27T08:00:59;2.55;;;0.95;;
22705;SDS011;11520;51.198;4.468;2022-08-27T08:03:25;5.53;;;1.33;;
22705;SDS011;11520;51.198;4.468;2022-08-27T08:05:51;2.92;;;1.30;;
22705;SDS011;11520;51.198;4.468;2022-08-27T08:08:18;6.68;;;1.42;;
22705;SDS011;11520;51.198;4.468;2022-08-27T08:10:45;6.55;;;1.20;;
22705;SDS011;11520;51.198;4.468;2022-08-27T08:13:17;4.93;;;0.98;;
22705;SDS011;11520;51.198;4.468;2022-08-27T08:15:46;6.13;;;1.13;;
22705;SDS011;11520;51.198;4.468;2022-08-27T08:18:12;5.18;;;1.10;;
22705;SDS011;11520;51.198;4.468;2022-08-27T08:20:38;4.07;;;1.30;;
22705;SDS011;11520;51.198;4.468;2022-08-27T08:23:04;2.88;;;1.10;;
22705;SDS011;11520;51.198;4.468;2022-08-27T08:25:30;2.70;;;0.90;;
22705;SDS011;11520;51.198;4.468;2022-08-27T08:27:55;5.47;;;1.20;;
22705;SDS011;11520;51.198;4.468;2022-08-27T08:30:21;6.93;;;1.05;;
22705;SDS011;11520;51.198;4.468;2022-08-27T08:32:47;3.80;;;0.93;;
22705;SDS011;11520;51.198;4.468;2022-08-27T08:35:13;3.03;;;1.00;;
22705;SDS011;11520;51.198;4.468;2022-08-27T08:37:42;4.55;;;1.30;;
22705;SDS011;11520;51.198;4.468;2022-08-27T08:40:09;4.70;;;1.30;;
22705;SDS011;11520;51.198;4.468;2022-08-27T08:42:44;2.55;;;1.15;;
22705;SDS011;11520;51.198;4.468;2022-08-27T08:45:15;5.57;;;1.38;;
22705;SDS011;11520;51.198;4.468;2022-08-27T08:47:47;4.63;;;1.27;;
22705;SDS011;11520;51.198;4.468;2022-08-27T08:55:54;4.03;;;1.30;;
22705;SDS011;11520;51.198;4.468;2022-08-27T09:01:13;5.43;;;1.10;;
22705;SDS011;11520;51.198;4.468;2022-08-27T09:03:43;2.33;;;1.00;;
22705;SDS011;11520;51.198;4.468;2022-08-27T09:06:25;2.90;;;1.50;;
22705;SDS011;11520;51.198;4.468;2022-08-27T09:08:59;6.32;;;1.83;;
22705;SDS011;11520;51.198;4.468;2022-08-27T09:11:39;3.10;;;0.90;;
22705;SDS011;11520;51.198;4.468;2022-08-27T09:17:12;2.20;;;0.90;;
22705;SDS011;11520;51.198;4.468;2022-08-27T09:19:38;2.88;;;0.95;;
22705;SDS011;11520;51.198;4.468;2022-08-27T09:27:41;4.07;;;1.40;;
22705;SDS011;11520;51.198;4.468;2022-08-27T09:30:09;4.18;;;1.30;;
22705;SDS011;11520;51.198;4.468;2022-08-27T09:32:38;5.68;;;1.50;;
22705;SDS011;11520;51.198;4.468;2022-08-27T09:35:06;2.88;;;1.05;;
22705;SDS011;11520;51.198;4.468;2022-08-27T09:37:44;3.88;;;1.10;;
22705;SDS011;11520;51.198;4.468;2022-08-27T09:40:18;6.38;;;1.00;;
22705;SDS011;11520;51.198;4.468;2022-08-27T09:42:55;3.35;;;0.98;;
22705;SDS011;11520;51.198;4.468;2022-08-27T09:45:32;4.88;;;1.20;;
22705;SDS011;11520;51.198;4.468;2022-08-27T09:48:06;4.93;;;1.08;;
22705;SDS011;11520;51.198;4.468;2022-08-27T09:50:37;3.03;;;0.98;;
22705;SDS011;11520;51.198;4.468;2022-08-27T09:53:15;3.47;;;1.05;;
22705;SDS011;11520;51.198;4.468;2022-08-27T09:55:52;2.05;;;0.88;;
22705;SDS011;11520;51.198;4.468;2022-08-27T09:58:25;3.30;;;1.00;;
22705;SDS011;11520;51.198;4.468;2022-08-27T10:00:59;4.60;;;1.10;;
22705;SDS011;11520;51.198;4.468;2022-08-27T10:03:30;3.35;;;1.08;;
22705;SDS011;11520;51.198;4.468;2022-08-27T10:05:56;1.92;;;0.88;;
22705;SDS011;11520;51.198;4.468;2022-08-27T10:08:32;2.97;;;1.27;;
22705;SDS011;11520;51.198;4.468;2022-08-27T10:11:18;2.65;;;1.00;;
22705;SDS011;11520;51.198;4.468;2022-08-27T10:30:36;2.97;;;1.10;;
22705;SDS011;11520;51.198;4.468;2022-08-27T10:36:20;5.57;;;1.57;;
22705;SDS011;11520;51.198;4.468;2022-08-27T10:39:18;3.22;;;1.00;;
22705;SDS011;11520;51.198;4.468;2022-08-27T10:53:35;4.70;;;1.42;;
22705;SDS011;11520;51.198;4.468;2022-08-27T10:56:13;8.20;;;1.65;;
22705;SDS011;11520;51.198;4.468;2022-08-27T11:02:02;2.03;;;1.00;;
22705;SDS011;11520;51.198;4.468;2022-08-27T11:04:30;4.50;;;1.80;;
22705;SDS011;11520;51.198;4.468;2022-08-27T11:07:02;5.00;;;1.48;;
22705;SDS011;11520;51.198;4.468;2022-08-27T11:09:35;7.20;;;1.33;;
22705;SDS011;11520;51.198;4.468;2022-08-27T11:12:36;4.68;;;1.48;;
22705;SDS011;11520;51.198;4.468;2022-08-27T11:20:37;2.35;;;1.30;;
22705;SDS011;11520;51.198;4.468;2022-08-27T11:23:09;5.20;;;1.52;;
22705;SDS011;11520;51.198;4.468;2022-08-27T11:28:18;3.15;;;1.20;;
22705;SDS011;11520;51.198;4.468;2022-08-27T11:44:16;4.18;;;1.67;;
22705;SDS011;11520;51.198;4.468;2022-08-27T11:52:05;3.40;;;1.50;;
22705;SDS011;11520;51.198;4.468;2022-08-27T11:54:46;4.93;;;1.60;;
22705;SDS011;11520;51.198;4.468;2022-08-27T11:57:18;4.65;;;1.45;;
22705;SDS011;11520;51.198;4.468;2022-08-27T12:00:08;3.95;;;1.70;;
22705;SDS011;11520;51.198;4.468;2022-08-27T12:03:06;3.47;;;1.60;;
22705;SDS011;11520;51.198;4.468;2022-08-27T12:24:26;4.18;;;1.83;;
22705;SDS011;11520;51.198;4.468;2022-08-27T12:27:00;4.32;;;1.92;;
22705;SDS011;11520;51.198;4.468;2022-08-27T12:29:39;4.80;;;1.63;;
22705;SDS011;11520;51.198;4.468;2022-08-27T12:37:48;5.43;;;1.80;;
22705;SDS011;11520;51.198;4.468;2022-08-27T12:40:23;4.40;;;1.88;;
22705;SDS011;11520;51.198;4.468;2022-08-27T12:42:49;4.07;;;1.42;;
22705;SDS011;11520;51.198;4.468;2022-08-27T12:45:17;6.25;;;1.67;;
22705;SDS011;11520;51.198;4.468;2022-08-27T12:47:45;5.38;;;1.70;;
22705;SDS011;11520;51.198;4.468;2022-08-27T12:50:11;3.17;;;1.50;;
22705;SDS011;11520;51.198;4.468;2022-08-27T12:52:47;4.45;;;1.77;;
22705;SDS011;11520;51.198;4.468;2022-08-27T12:58:13;11.55;;;2.03;;
22705;SDS011;11520;51.198;4.468;2022-08-27T13:03:36;4.17;;;1.33;;
22705;SDS011;11520;51.198;4.468;2022-08-27T13:06:21;3.70;;;1.58;;
22705;SDS011;11520;51.198;4.468;2022-08-27T13:08:55;7.85;;;1.63;;
22705;SDS011;11520;51.198;4.468;2022-08-27T13:11:24;3.90;;;1.92;;
22705;SDS011;11520;51.198;4.468;2022-08-27T13:14:03;4.43;;;1.67;;
22705;SDS011;11520;51.198;4.468;2022-08-27T13:16:31;3.00;;;1.42;;
22705;SDS011;11520;51.198;4.468;2022-08-27T13:18:57;3.25;;;1.50;;
22705;SDS011;11520;51.198;4.468;2022-08-27T13:21:27;6.82;;;1.83;;
22705;SDS011;11520;51.198;4.468;2022-08-27T13:24:02;3.78;;;1.52;;
22705;SDS011;11520;51.198;4.468;2022-08-27T13:26:31;4.72;;;2.13;;
22705;SDS011;11520;51.198;4.468;2022-08-27T13:29:07;4.65;;;1.70;;
22705;SDS011;11520;51.198;4.468;2022-08-27T13:31:34;4.18;;;1.75;;
22705;SDS011;11520;51.198;4.468;2022-08-27T13:34:02;5.15;;;1.80;;
22705;SDS011;11520;51.198;4.468;2022-08-27T13:36:30;5.03;;;2.10;;
22705;SDS011;11520;51.198;4.468;2022-08-27T13:38:59;3.85;;;1.63;;
22705;SDS011;11520;51.198;4.468;2022-08-27T13:41:32;2.50;;;1.58;;
22705;SDS011;11520;51.198;4.468;2022-08-27T13:46:52;4.60;;;1.73;;
22705;SDS011;11520;51.198;4.468;2022-08-27T13:49:25;4.45;;;1.45;;
22705;SDS011;11520;51.198;4.468;2022-08-27T13:52:28;2.80;;;1.33;;
22705;SDS011;11520;51.198;4.468;2022-08-27T13:54:46;7.03;;;1.63;;
22705;SDS011;11520;51.198;4.468;2022-08-27T13:57:29;6.22;;;1.40;;
22705;SDS011;11520;51.198;4.468;2022-08-27T14:02:52;4.70;;;1.50;;
22705;SDS011;11520;51.198;4.468;2022-08-27T14:07:50;4.60;;;1.85;;
22705;SDS011;11520;51.198;4.468;2022-08-27T14:10:32;5.78;;;1.77;;
22705;SDS011;11520;51.198;4.468;2022-08-27T14:13:02;6.65;;;1.38;;
22705;SDS011;11520;51.198;4.468;2022-08-27T14:18:34;5.00;;;1.50;;
22705;SDS011;11520;51.198;4.468;2022-08-27T14:21:01;5.90;;;1.30;;
22705;SDS011;11520;51.198;4.468;2022-08-27T14:23:28;6.00;;;1.58;;
22705;SDS011;11520;51.198;4.468;2022-08-27T14:25:57;4.30;;;1.33;;
22705;SDS011;11520;51.198;4.468;2022-08-27T14:28:24;4.65;;;1.58;;
22705;SDS011;11520;51.198;4.468;2022-08-27T14:30:51;4.40;;;1.60;;
22705;SDS011;11520;51.198;4.468;2022-08-27T14:33:16;4.03;;;1.20;;
22705;SDS011;11520;51.198;4.468;2022-08-27T14:35:43;4.13;;;1.35;;
22705;SDS011;11520;51.198;4.468;2022-08-27T14:38:14;3.38;;;1.38;;
22705;SDS011;11520;51.198;4.468;2022-08-27T14:43:13;4.97;;;1.40;;
22705;SDS011;11520;51.198;4.468;2022-08-27T14:45:39;5.45;;;1.58;;
22705;SDS011;11520;51.198;4.468;2022-08-27T14:48:09;7.90;;;1.38;;
22705;SDS011;11520;51.198;4.468;2022-08-27T14:50:39;4.13;;;1.45;;
22705;SDS011;11520;51.198;4.468;2022-08-27T14:53:06;3.78;;;1.40;;
22705;SDS011;11520;51.198;4.468;2022-08-27T14:55:31;5.10;;;2.03;;
22705;SDS011;11520;51.198;4.468;2022-08-27T14:57:58;4.53;;;1.42;;
22705;SDS011;11520;51.198;4.468;2022-08-27T15:00:26;3.17;;;1.67;;
22705;SDS011;11520;51.198;4.468;2022-08-27T15:02:54;3.65;;;1.00;;
22705;SDS011;11520;51.198;4.468;2022-08-27T15:05:22;4.70;;;1.67;;
22705;SDS011;11520;51.198;4.468;2022-08-27T15:07:49;3.55;;;1.50;;
22705;SDS011;11520;51.198;4.468;2022-08-27T15:10:15;3.70;;;1.08;;
22705;SDS011;11520;51.198;4.468;2022-08-27T15:12:40;2.85;;;1.30;;
22705;SDS011;11520;51.198;4.468;2022-08-27T15:15:07;5.00;;;1.50;;
22705;SDS011;11520;51.198;4.468;2022-08-27T15:17:34;6.28;;;1.42;;
22705;SDS011;11520;51.198;4.468;2022-08-27T15:20:06;5.38;;;2.13;;
22705;SDS011;11520;51.198;4.468;2022-08-27T15:22:40;5.32;;;1.95;;
22705;SDS011;11520;51.198;4.468;2022-08-27T15:25:10;3.17;;;1.10;;
22705;SDS011;11520;51.198;4.468;2022-08-27T15:27:37;5.53;;;1.10;;
22705;SDS011;11520;51.198;4.468;2022-08-27T15:30:03;5.93;;;1.30;;
22705;SDS011;11520;51.198;4.468;2022-08-27T15:32:36;3.65;;;1.00;;
22705;SDS011;11520;51.198;4.468;2022-08-27T15:35:05;2.60;;;1.17;;
22705;SDS011;11520;51.198;4.468;2022-08-27T15:37:33;3.00;;;1.30;;
22705;SDS011;11520;51.198;4.468;2022-08-27T15:40:00;3.38;;;1.05;;
22705;SDS011;11520;51.198;4.468;2022-08-27T15:42:26;3.47;;;1.10;;
22705;SDS011;11520;51.198;4.468;2022-08-27T15:44:53;5.95;;;1.20;;
22705;SDS011;11520;51.198;4.468;2022-08-27T15:47:22;2.58;;;0.80;;
22705;SDS011;11520;51.198;4.468;2022-08-27T15:49:48;3.67;;;1.30;;
22705;SDS011;11520;51.198;4.468;2022-08-27T15:52:14;2.97;;;0.73;;
22705;SDS011;11520;51.198;4.468;2022-08-27T15:54:47;4.38;;;1.42;;
22705;SDS011;11520;51.198;4.468;2022-08-27T15:57:15;4.75;;;1.00;;
22705;SDS011;11520;51.198;4.468;2022-08-27T15:59:45;7.28;;;1.38;;
22705;SDS011;11520;51.198;4.468;2022-08-27T16:02:14;5.85;;;1.20;;
22705;SDS011;11520;51.198;4.468;2022-08-27T16:04:44;3.85;;;1.00;;
22705;SDS011;11520;51.198;4.468;2022-08-27T16:07:10;4.88;;;0.77;;
22705;SDS011;11520;51.198;4.468;2022-08-27T16:09:38;3.05;;;0.80;;
22705;SDS011;11520;51.198;4.468;2022-08-27T16:12:04;2.33;;;0.93;;
22705;SDS011;11520;51.198;4.468;2022-08-27T16:14:33;5.15;;;1.33;;
22705;SDS011;11520;51.198;4.468;2022-08-27T16:17:02;4.80;;;1.40;;
22705;SDS011;11520;51.198;4.468;2022-08-27T16:19:27;3.78;;;1.20;;
22705;SDS011;11520;51.198;4.468;2022-08-27T16:21:54;3.30;;;0.65;;
22705;SDS011;11520;51.198;4.468;2022-08-27T16:24:22;5.57;;;0.73;;
22705;SDS011;11520;51.198;4.468;2022-08-27T16:26:49;5.45;;;1.25;;
22705;SDS011;11520;51.198;4.468;2022-08-27T16:29:14;2.15;;;1.05;;
22705;SDS011;11520;51.198;4.468;2022-08-27T16:31:40;5.97;;;0.80;;
22705;SDS011;11520;51.198;4.468;2022-08-27T16:34:17;3.08;;;0.80;;
22705;SDS011;11520;51.198;4.468;2022-08-27T16:36:45;4.95;;;1.08;;
22705;SDS011;11520;51.198;4.468;2022-08-27T16:39:12;3.45;;;0.93;;
22705;SDS011;11520;51.198;4.468;2022-08-27T16:41:39;1.58;;;0.80;;
22705;SDS011;11520;51.198;4.468;2022-08-27T16:44:06;5.45;;;1.10;;
22705;SDS011;11520;51.198;4.468;2022-08-27T16:46:32;4.80;;;0.88;;
22705;SDS011;11520;51.198;4.468;2022-08-27T16:48:57;2.65;;;0.90;;
22705;SDS011;11520;51.198;4.468;2022-08-27T16:51:43;4.60;;;1.20;;
22705;SDS011;11520;51.198;4.468;2022-08-27T16:54:09;2.40;;;1.00;;
22705;SDS011;11520;51.198;4.468;2022-08-27T16:56:37;2.60;;;1.10;;
22705;SDS011;11520;51.198;4.468;2022-08-27T16:59:04;4.97;;;1.13;;
22705;SDS011;11520;51.198;4.468;2022-08-27T17:01:32;3.08;;;0.90;;
22705;SDS011;11520;51.198;4.468;2022-08-27T17:04:00;3.38;;;1.40;;
22705;SDS011;11520;51.198;4.468;2022-08-27T17:06:28;3.28;;;1.00;;
22705;SDS011;11520;51.198;4.468;2022-08-27T17:08:53;4.60;;;1.00;;
22705;SDS011;11520;51.198;4.468;2022-08-27T17:11:22;4.25;;;1.20;;
22705;SDS011;11520;51.198;4.468;2022-08-27T17:16:24;3.45;;;1.48;;
22705;SDS011;11520;51.198;4.468;2022-08-27T17:18:53;3.72;;;1.27;;
22705;SDS011;11520;51.198;4.468;2022-08-27T17:21:20;3.45;;;1.00;;
22705;SDS011;11520;51.198;4.468;2022-08-27T17:23:47;3.47;;;1.00;;
22705;SDS011;11520;51.198;4.468;2022-08-27T17:26:15;5.03;;;1.23;;
22705;SDS011;11520;51.198;4.468;2022-08-27T17:28:41;4.40;;;1.10;;
22705;SDS011;11520;51.198;4.468;2022-08-27T17:31:09;4.90;;;1.13;;
22705;SDS011;11520;51.198;4.468;2022-08-27T17:33:42;3.90;;;0.93;;
22705;SDS011;11520;51.198;4.468;2022-08-27T17:36:09;3.50;;;1.13;;